Time;durP1;ratioP1;P1;durP2;ratioP2;P2;SDS_P1;SDS_P2;PMS_P1;PMS_P2;Temp;Humidity;BMP_temperature;BMP_pressure;BME280_temperature;BME280_humidity;BME280_pressure;Samples;Min_cycle;Max_cycle;Signal;HPM_P1;HPM_P2
2024/01/31 00:00:54;;;;;;;0.40;0.35;;;4.60;99.90;;;;;;5071138;28;20476;-77
2024/01/31 00:03:20;;;;;;;1.27;0.55;;;4.70;99.90;;;;;;5049752;28;20427;-78
2024/01/31 00:05:46;;;;;;;0.10;0.10;;;4.70;99.90;;;;;;5070504;28;20044;-78
2024/01/31 00:08:12;;;;;;;2.40;0.30;;;4.70;99.90;;;;;;5070973;28;20032;-77
2024/01/31 00:10:37;;;;;;;0.20;0.20;;;4.80;99.90;;;;;;5071581;28;20037;-77
2024/01/31 00:13:03;;;;;;;1.55;0.30;;;4.80;99.90;;;;;;5071245;28;20536;-77
2024/01/31 00:15:29;;;;;;;0.17;0.17;;;4.90;99.90;;;;;;5070745;28;20029;-77
2024/01/31 00:17:56;;;;;;;1.45;0.30;;;4.90;99.90;;;;;;5054261;28;20469;-78
2024/01/31 00:20:24;;;;;;;4.07;0.20;;;5.00;99.90;;;;;;5066728;28;20041;-78
2024/01/31 00:22:49;;;;;;;3.65;0.75;;;5.00;99.90;;;;;;5070763;28;20032;-79
2024/01/31 00:25:15;;;;;;;0.60;0.30;;;5.00;99.90;;;;;;5070682;28;20399;-78
2024/01/31 00:27:41;;;;;;;0.70;0.43;;;5.00;99.90;;;;;;5065582;28;20036;-77
2024/01/31 00:30:10;;;;;;;0.10;0.10;;;5.00;99.90;;;;;;5068128;28;20044;-78
2024/01/31 00:32:35;;;;;;;0.73;0.30;;;5.10;99.90;;;;;;5070319;28;20040;-78
2024/01/31 00:35:02;;;;;;;2.08;0.30;;;5.10;99.90;;;;;;5053832;28;20120;-78
2024/01/31 00:37:27;;;;;;;1.75;0.55;;;5.10;99.90;;;;;;5070542;28;20182;-79
2024/01/31 00:39:53;;;;;;;0.20;0.20;;;5.10;99.90;;;;;;5070963;28;20521;-78
2024/01/31 00:42:19;;;;;;;4.20;0.55;;;5.20;99.90;;;;;;5070582;28;20372;-78
2024/01/31 00:44:45;;;;;;;0.38;0.28;;;5.20;99.90;;;;;;5070528;28;20036;-78
2024/01/31 00:47:11;;;;;;;7.80;0.38;;;5.20;99.90;;;;;;5096288;28;20092;-78
2024/01/31 00:49:37;;;;;;;2.13;0.15;;;5.20;99.90;;;;;;5070536;28;20413;-79
2024/01/31 00:52:03;;;;;;;3.58;0.30;;;5.20;99.90;;;;;;5070263;28;20032;-78
2024/01/31 00:54:30;;;;;;;0.57;0.28;;;5.20;99.90;;;;;;5070775;28;20054;-79
2024/01/31 00:56:55;;;;;;;0.57;0.20;;;5.20;99.90;;;;;;5070897;28;20032;-78
2024/01/31 00:59:21;;;;;;;2.90;0.38;;;5.20;99.90;;;;;;5070671;28;20519;-79
2024/01/31 01:01:47;;;;;;;1.23;0.30;;;5.10;99.90;;;;;;5070329;28;20036;-79
2024/01/31 01:04:13;;;;;;;0.75;0.47;;;5.10;99.90;;;;;;5070722;28;20483;-79
2024/01/31 01:06:42;;;;;;;0.30;0.30;;;5.10;99.90;;;;;;5070242;28;20036;-79
2024/01/31 01:09:08;;;;;;;0.10;0.10;;;5.10;99.90;;;;;;5053431;28;20469;-78
2024/01/31 01:11:34;;;;;;;8.48;0.28;;;5.10;99.90;;;;;;5070429;28;20047;-79
2024/01/31 01:14:00;;;;;;;0.35;0.32;;;5.10;99.90;;;;;;5070502;28;20033;-79
2024/01/31 01:16:25;;;;;;;0.35;0.20;;;5.00;99.90;;;;;;5073016;28;20097;-79
2024/01/31 01:18:51;;;;;;;0.38;0.10;;;5.10;99.90;;;;;;5074396;28;20515;-78
2024/01/31 01:21:17;;;;;;;1.33;0.40;;;5.10;99.90;;;;;;5057158;28;20404;-78
2024/01/31 01:23:43;;;;;;;1.23;0.95;;;5.10;99.90;;;;;;5073778;28;20070;-78
2024/01/31 01:26:08;;;;;;;0.20;0.20;;;5.10;99.90;;;;;;5057230;28;20047;-79
2024/01/31 01:28:34;;;;;;;3.92;0.30;;;5.10;99.90;;;;;;5073186;28;20090;-78
2024/01/31 01:31:00;;;;;;;4.18;1.27;;;5.10;99.90;;;;;;5073623;28;20040;-79
2024/01/31 01:33:26;;;;;;;2.15;0.17;;;5.10;99.90;;;;;;5073736;28;20473;-78
2024/01/31 01:35:52;;;;;;;1.88;0.93;;;5.10;99.90;;;;;;5073772;28;20107;-78
2024/01/31 01:38:18;;;;;;;0.50;0.32;;;5.10;99.90;;;;;;5057309;28;20600;-78
2024/01/31 01:40:45;;;;;;;2.88;0.50;;;5.20;99.90;;;;;;5073796;28;20036;-78
2024/01/31 01:43:17;;;;;;;0.75;0.22;;;5.20;99.90;;;;;;5056710;28;20102;-78
2024/01/31 01:45:44;;;;;;;0.20;0.20;;;5.20;99.90;;;;;;5073706;28;20036;-78
2024/01/31 01:48:14;;;;;;;0.55;0.40;;;5.20;99.90;;;;;;5073184;28;20033;-78
2024/01/31 01:50:40;;;;;;;1.67;0.35;;;5.20;99.90;;;;;;5073294;28;20036;-79
2024/01/31 01:53:06;;;;;;;4.95;0.30;;;5.20;99.90;;;;;;5073814;28;20499;-79
2024/01/31 01:55:32;;;;;;;2.83;0.30;;;5.20;99.90;;;;;;5071207;28;20040;-79
2024/01/31 01:57:58;;;;;;;1.98;0.30;;;5.20;99.90;;;;;;5072659;28;20125;-79
2024/01/31 02:00:25;;;;;;;0.20;0.20;;;5.30;99.90;;;;;;5073457;28;20125;-79
2024/01/31 02:02:51;;;;;;;1.40;0.38;;;5.20;99.90;;;;;;5073486;28;20041;-79
2024/01/31 02:05:17;;;;;;;2.25;0.38;;;5.20;99.90;;;;;;5073527;28;20036;-79
2024/01/31 02:07:44;;;;;;;1.25;0.57;;;5.20;99.90;;;;;;5073204;28;20114;-79
2024/01/31 02:10:10;;;;;;;4.88;0.68;;;5.20;99.90;;;;;;5073248;28;20040;-79
2024/01/31 02:12:35;;;;;;;0.52;0.50;;;5.30;99.90;;;;;;5073364;28;20524;-80
2024/01/31 02:15:01;;;;;;;0.20;0.17;;;5.30;99.90;;;;;;5073724;28;20032;-79
2024/01/31 02:17:27;;;;;;;5.53;0.40;;;5.30;99.90;;;;;;5059809;28;20424;-79
2024/01/31 02:19:53;;;;;;;4.70;0.85;;;5.30;99.90;;;;;;5052874;28;20128;-79
2024/01/31 02:22:19;;;;;;;1.40;0.43;;;5.30;99.90;;;;;;5036352;28;20127;-79
2024/01/31 02:24:46;;;;;;;0.65;0.30;;;5.30;99.90;;;;;;5032187;28;20041;-78
2024/01/31 02:27:12;;;;;;;4.60;0.70;;;5.30;99.90;;;;;;5051605;28;20052;-79
2024/01/31 02:29:39;;;;;;;2.88;0.40;;;5.30;99.90;;;;;;5032733;28;20048;-79
2024/01/31 02:32:06;;;;;;;1.80;0.45;;;5.20;99.90;;;;;;5036135;28;20052;-79
2024/01/31 02:34:32;;;;;;;3.67;0.57;;;5.20;99.90;;;;;;5052737;28;20118;-79
2024/01/31 02:36:57;;;;;;;1.13;0.22;;;5.20;99.90;;;;;;5052763;28;20409;-79
2024/01/31 02:39:24;;;;;;;2.03;0.60;;;5.20;99.90;;;;;;5052601;28;20052;-79
2024/01/31 02:41:52;;;;;;;3.72;0.55;;;5.20;99.90;;;;;;5052449;28;20045;-79
2024/01/31 02:44:19;;;;;;;2.00;0.60;;;5.20;99.90;;;;;;5052309;28;20053;-79
2024/01/31 02:46:44;;;;;;;0.50;0.43;;;5.20;99.90;;;;;;5052390;28;20045;-79
2024/01/31 02:49:10;;;;;;;0.30;0.30;;;5.20;99.90;;;;;;5052475;28;20045;-79
2024/01/31 02:51:36;;;;;;;1.48;0.30;;;5.20;99.90;;;;;;5035948;28;20449;-79
2024/01/31 02:54:02;;;;;;;0.20;0.20;;;5.10;99.90;;;;;;5052609;28;20035;-79
2024/01/31 02:56:27;;;;;;;0.63;0.35;;;5.10;99.90;;;;;;5034839;28;20373;-79
2024/01/31 02:58:53;;;;;;;4.00;0.32;;;5.10;99.90;;;;;;5052168;28;20064;-79
2024/01/31 03:01:19;;;;;;;0.60;0.20;;;5.10;99.90;;;;;;5052293;28;20045;-79
2024/01/31 03:03:45;;;;;;;0.15;0.10;;;5.00;99.90;;;;;;5027213;28;20041;-79
2024/01/31 03:06:11;;;;;;;0.10;0.10;;;5.00;99.90;;;;;;5051802;28;20101;-79
2024/01/31 03:08:37;;;;;;;0.57;0.28;;;5.00;99.90;;;;;;5051919;28;20052;-79
2024/01/31 03:11:03;;;;;;;2.60;0.20;;;4.90;99.90;;;;;;5051961;28;20037;-78
2024/01/31 03:13:28;;;;;;;3.58;0.47;;;4.90;99.90;;;;;;5052166;28;20036;-80
2024/01/31 03:15:54;;;;;;;0.47;0.30;;;4.80;99.90;;;;;;5052188;28;20044;-79
2024/01/31 03:18:20;;;;;;;0.85;0.30;;;4.70;99.90;;;;;;5051850;28;20121;-79
2024/01/31 03:20:46;;;;;;;1.85;0.30;;;4.70;99.90;;;;;;5051785;28;20037;-79
2024/01/31 03:23:12;;;;;;;0.10;0.10;;;4.60;99.90;;;;;;5052055;28;20512;-79
2024/01/31 03:25:38;;;;;;;0.75;0.25;;;4.60;99.90;;;;;;5051244;28;20118;-79
2024/01/31 03:28:04;;;;;;;0.38;0.28;;;4.50;99.90;;;;;;5047148;28;20076;-79
2024/01/31 03:30:30;;;;;;;1.52;0.77;;;4.50;99.90;;;;;;5051658;28;20432;-79
2024/01/31 03:32:56;;;;;;;0.32;0.30;;;4.50;99.90;;;;;;5051895;28;20111;-78
2024/01/31 03:35:22;;;;;;;2.50;0.65;;;4.40;99.90;;;;;;5051443;28;20127;-79
2024/01/31 03:37:47;;;;;;;0.63;0.55;;;4.40;99.90;;;;;;5050941;28;20040;-79
2024/01/31 03:40:13;;;;;;;2.95;0.20;;;4.40;99.90;;;;;;5051441;28;20049;-79
2024/01/31 03:42:39;;;;;;;0.10;0.10;;;4.40;99.90;;;;;;5051490;28;20111;-78
2024/01/31 03:45:05;;;;;;;4.68;0.47;;;4.40;99.90;;;;;;5051745;28;20041;-79
2024/01/31 03:47:34;;;;;;;0.10;0.10;;;4.40;99.90;;;;;;5051736;28;20045;-79
2024/01/31 03:50:00;;;;;;;0.28;0.22;;;4.30;99.90;;;;;;5051003;28;20048;-78
2024/01/31 03:52:25;;;;;;;0.47;0.38;;;4.30;99.90;;;;;;5030529;28;20041;-79
2024/01/31 03:54:51;;;;;;;4.80;0.50;;;4.30;99.90;;;;;;5051253;28;20037;-78
2024/01/31 03:57:17;;;;;;;0.65;0.20;;;4.30;99.90;;;;;;5051218;28;20504;-79
2024/01/31 03:59:43;;;;;;;6.22;0.35;;;4.30;99.90;;;;;;5050996;28;20052;-79
2024/01/31 04:02:09;;;;;;;0.30;0.28;;;4.40;99.90;;;;;;5051101;28;20041;-79
2024/01/31 04:04:34;;;;;;;0.20;0.20;;;4.40;99.90;;;;;;5051156;28;20166;-79
2024/01/31 04:07:00;;;;;;;0.25;0.20;;;4.40;99.90;;;;;;5051202;28;20064;-78
2024/01/31 04:09:26;;;;;;;1.83;0.30;;;4.40;99.90;;;;;;5067648;28;20116;-78
2024/01/31 04:11:52;;;;;;;0.75;0.63;;;4.40;99.90;;;;;;5050538;28;20032;-78
2024/01/31 04:14:17;;;;;;;1.00;0.30;;;4.40;99.90;;;;;;5050986;28;20037;-78
2024/01/31 04:16:43;;;;;;;1.27;0.65;;;4.40;99.90;;;;;;5051173;28;20385;-79
2024/01/31 04:19:09;;;;;;;0.55;0.28;;;4.50;99.90;;;;;;5050955;28;20045;-79
2024/01/31 04:21:35;;;;;;;0.10;0.10;;;4.50;99.90;;;;;;5049921;28;20120;-79
2024/01/31 04:24:01;;;;;;;4.70;0.55;;;4.50;99.90;;;;;;5050770;28;20049;-79
2024/01/31 04:26:26;;;;;;;0.35;0.35;;;4.50;99.90;;;;;;5050881;28;20059;-79
2024/01/31 04:28:52;;;;;;;1.55;0.43;;;4.50;99.90;;;;;;5049613;28;20057;-79
2024/01/31 04:31:18;;;;;;;1.05;0.28;;;4.60;99.90;;;;;;5050637;28;20106;-79
2024/01/31 04:33:56;;;;;;;2.22;0.75;;;4.60;99.90;;;;;;5050677;28;20496;-79
2024/01/31 04:36:22;;;;;;;5.63;0.55;;;4.60;99.90;;;;;;5050769;28;20045;-79
2024/01/31 04:38:47;;;;;;;0.90;0.40;;;4.70;99.90;;;;;;5050374;28;20047;-78
2024/01/31 04:41:13;;;;;;;3.53;0.80;;;4.70;99.90;;;;;;5050943;28;20041;-79
2024/01/31 04:43:41;;;;;;;1.52;0.47;;;4.70;99.90;;;;;;5050698;28;20036;-79
2024/01/31 04:46:06;;;;;;;0.50;0.35;;;4.70;99.90;;;;;;5080317;28;20120;-79
2024/01/31 04:48:32;;;;;;;4.97;0.43;;;4.80;99.90;;;;;;5050616;28;20136;-79
2024/01/31 04:50:58;;;;;;;1.35;0.50;;;4.80;99.90;;;;;;5052506;28;20033;-79
2024/01/31 04:53:24;;;;;;;0.60;0.43;;;4.80;99.90;;;;;;5037942;28;20095;-79
2024/01/31 04:55:49;;;;;;;1.13;0.75;;;4.80;99.90;;;;;;5054772;28;20532;-79
2024/01/31 04:58:15;;;;;;;5.40;0.65;;;4.80;99.90;;;;;;5037902;28;20041;-79
2024/01/31 05:00:41;;;;;;;6.45;0.60;;;4.80;99.90;;;;;;5054555;28;20033;-79
2024/01/31 05:03:07;;;;;;;1.02;0.35;;;4.80;99.90;;;;;;5054786;28;20086;-78
2024/01/31 05:05:33;;;;;;;2.30;0.70;;;4.80;99.90;;;;;;5054277;28;20438;-79
2024/01/31 05:07:59;;;;;;;2.53;0.50;;;4.90;99.90;;;;;;5037628;28;20094;-78
2024/01/31 05:10:25;;;;;;;2.05;0.75;;;4.80;99.90;;;;;;5036698;28;20049;-79
2024/01/31 05:12:50;;;;;;;3.63;0.65;;;4.90;99.90;;;;;;5051580;28;20048;-79
2024/01/31 05:15:16;;;;;;;1.73;0.50;;;4.90;99.90;;;;;;5054294;28;20047;-79
2024/01/31 05:17:42;;;;;;;0.50;0.20;;;4.90;99.90;;;;;;5054272;28;20067;-79
2024/01/31 05:20:08;;;;;;;0.43;0.20;;;4.90;99.90;;;;;;5031907;28;20700;-79
2024/01/31 05:22:34;;;;;;;4.47;0.57;;;4.90;99.90;;;;;;5053920;28;20044;-79
2024/01/31 05:24:59;;;;;;;2.65;0.63;;;4.90;99.90;;;;;;5053381;28;20041;-79
2024/01/31 05:27:25;;;;;;;3.10;1.08;;;4.90;99.90;;;;;;5049590;28;20194;-79
2024/01/31 05:29:51;;;;;;;3.30;0.65;;;4.90;99.90;;;;;;5032557;28;20049;-79
2024/01/31 05:32:17;;;;;;;1.05;0.98;;;4.90;99.90;;;;;;5053834;28;20041;-79
2024/01/31 05:34:44;;;;;;;2.60;0.65;;;4.90;99.90;;;;;;5053718;28;20044;-79
2024/01/31 05:37:10;;;;;;;2.50;0.38;;;4.90;99.90;;;;;;5079225;28;20116;-78
2024/01/31 05:39:35;;;;;;;1.13;0.70;;;4.90;99.90;;;;;;5053695;28;20075;-78
2024/01/31 05:42:02;;;;;;;2.05;0.50;;;4.90;99.90;;;;;;5037008;28;20040;-79
2024/01/31 05:44:27;;;;;;;2.60;0.55;;;5.00;99.90;;;;;;5053237;28;20041;-79
2024/01/31 05:46:53;;;;;;;0.73;0.38;;;5.00;99.90;;;;;;5053348;28;20120;-78
2024/01/31 05:49:19;;;;;;;1.27;0.70;;;5.00;99.90;;;;;;5032592;28;20099;-78
2024/01/31 05:51:45;;;;;;;2.15;0.50;;;5.00;99.90;;;;;;5053131;28;20036;-78
2024/01/31 05:54:11;;;;;;;3.40;0.70;;;5.00;99.90;;;;;;5036903;28;20037;-79
2024/01/31 05:56:38;;;;;;;1.80;0.55;;;5.00;99.90;;;;;;5053226;28;20045;-79
2024/01/31 05:59:04;;;;;;;1.23;0.77;;;5.00;99.90;;;;;;5053650;28;20397;-80
2024/01/31 06:01:29;;;;;;;1.83;0.80;;;5.00;99.90;;;;;;5035837;28;20052;-79
2024/01/31 06:03:55;;;;;;;1.55;0.73;;;5.00;99.90;;;;;;5053275;28;20044;-78
2024/01/31 06:06:21;;;;;;;0.80;0.30;;;4.90;99.90;;;;;;5053333;28;20111;-79
2024/01/31 06:08:47;;;;;;;0.17;0.17;;;4.90;99.90;;;;;;5053374;28;20041;-80
2024/01/31 06:11:12;;;;;;;1.45;0.85;;;4.80;99.90;;;;;;5053423;28;20040;-79
2024/01/31 06:13:39;;;;;;;2.58;0.52;;;4.80;99.90;;;;;;5053030;28;20485;-80
2024/01/31 06:16:05;;;;;;;1.90;0.35;;;4.80;99.90;;;;;;5053013;28;20045;-79
2024/01/31 06:18:34;;;;;;;6.88;0.35;;;4.70;99.90;;;;;;5052607;28;20500;-79
2024/01/31 06:21:00;;;;;;;3.30;0.60;;;4.70;99.90;;;;;;5069277;28;20037;-79
2024/01/31 06:23:26;;;;;;;0.75;0.40;;;4.70;99.90;;;;;;5053332;28;20083;-80
2024/01/31 06:25:52;;;;;;;1.42;0.63;;;4.70;99.90;;;;;;5053007;28;20064;-80
2024/01/31 06:28:18;;;;;;;5.25;2.00;;;4.70;99.90;;;;;;5049966;28;20045;-80
2024/01/31 06:30:45;;;;;;;1.17;0.35;;;4.70;99.90;;;;;;5036468;28;20047;-79
2024/01/31 06:33:11;;;;;;;0.30;0.30;;;4.70;99.90;;;;;;5036383;28;20408;-79
2024/01/31 06:35:41;;;;;;;2.67;0.43;;;4.70;99.90;;;;;;5052691;28;20212;-80
2024/01/31 06:38:07;;;;;;;4.70;0.73;;;4.80;99.90;;;;;;5052639;28;20489;-79
2024/01/31 06:40:33;;;;;;;3.25;0.32;;;4.80;99.90;;;;;;5052896;28;20045;-80
2024/01/31 06:42:59;;;;;;;2.15;0.80;;;4.80;99.90;;;;;;5036301;28;20178;-80
2024/01/31 06:45:25;;;;;;;6.57;2.35;;;4.80;99.90;;;;;;5052913;28;20107;-80
2024/01/31 06:47:51;;;;;;;2.10;0.77;;;4.80;99.90;;;;;;5082079;28;20049;-80
2024/01/31 06:50:18;;;;;;;4.38;1.30;;;4.80;99.90;;;;;;5052204;28;20048;-80
2024/01/31 06:52:45;;;;;;;5.57;0.70;;;4.80;99.90;;;;;;5032122;28;20500;-80
2024/01/31 06:55:11;;;;;;;7.88;1.60;;;4.80;99.90;;;;;;5052270;28;20041;-79
2024/01/31 06:57:37;;;;;;;3.95;1.60;;;4.80;99.90;;;;;;5036011;28;20036;-80
2024/01/31 07:00:11;;;;;;;13.00;5.13;;;4.80;99.90;;;;;;5035699;28;20091;-79
2024/01/31 07:02:38;;;;;;;6.28;1.88;;;4.80;99.90;;;;;;5052147;28;20500;-80
2024/01/31 07:05:04;;;;;;;4.85;1.60;;;4.80;99.90;;;;;;5035374;28;20045;-79
2024/01/31 07:07:30;;;;;;;1.75;1.02;;;4.90;99.90;;;;;;5035769;28;20048;-79
2024/01/31 07:09:56;;;;;;;2.65;1.20;;;4.90;99.90;;;;;;5049465;28;20040;-79
2024/01/31 07:12:22;;;;;;;5.38;1.20;;;4.90;99.90;;;;;;5051583;28;20060;-78
2024/01/31 07:14:48;;;;;;;1.10;0.68;;;4.90;99.90;;;;;;5051427;28;20492;-79
2024/01/31 07:17:14;;;;;;;5.55;0.90;;;4.90;99.90;;;;;;5051635;28;20045;-79
2024/01/31 07:19:43;;;;;;;2.10;1.00;;;5.00;99.90;;;;;;5049899;28;20089;-79
2024/01/31 07:22:09;;;;;;;0.70;0.53;;;4.90;99.90;;;;;;5050759;28;20080;-79
2024/01/31 07:24:35;;;;;;;0.73;0.45;;;4.90;99.90;;;;;;5051791;28;20106;-79
2024/01/31 07:27:02;;;;;;;1.67;1.00;;;4.90;99.90;;;;;;5048077;28;20713;-78
2024/01/31 07:29:28;;;;;;;1.63;0.85;;;4.90;99.90;;;;;;5050188;28;20041;-78
2024/01/31 07:31:54;;;;;;;3.85;1.17;;;4.90;99.90;;;;;;5051526;28;20037;-79
2024/01/31 07:34:19;;;;;;;3.63;1.13;;;4.90;99.90;;;;;;5026788;28;20039;-78
2024/01/31 07:36:45;;;;;;;1.13;0.70;;;4.90;99.90;;;;;;5051296;28;20496;-79
2024/01/31 07:39:11;;;;;;;2.95;1.42;;;4.90;99.90;;;;;;5050526;28;20047;-79
2024/01/31 07:41:37;;;;;;;3.42;1.10;;;4.90;99.90;;;;;;5047609;28;20040;-79
2024/01/31 07:44:03;;;;;;;3.17;1.38;;;4.90;99.90;;;;;;5030474;28;20072;-79
2024/01/31 07:46:29;;;;;;;2.55;1.33;;;4.90;99.90;;;;;;5050828;28;20036;-77
2024/01/31 07:48:55;;;;;;;1.77;0.90;;;4.90;99.90;;;;;;5050760;28;20045;-78
2024/01/31 07:51:21;;;;;;;1.95;1.17;;;4.90;99.90;;;;;;5048740;28;20040;-78
2024/01/31 07:53:47;;;;;;;4.30;1.27;;;4.90;99.90;;;;;;5049408;28;20041;-78
2024/01/31 07:56:13;;;;;;;1.67;1.02;;;4.90;99.90;;;;;;5050615;28;20047;-79
2024/01/31 07:58:38;;;;;;;3.40;1.42;;;5.00;99.90;;;;;;5050660;28;20075;-78
2024/01/31 08:01:04;;;;;;;3.05;1.05;;;5.00;99.90;;;;;;5048820;28;20044;-80
2024/01/31 08:03:31;;;;;;;3.35;1.35;;;5.00;99.90;;;;;;5050732;28;20041;-79
2024/01/31 08:05:59;;;;;;;3.60;1.63;;;5.00;99.90;;;;;;5050653;28;20373;-79
2024/01/31 08:08:25;;;;;;;4.20;1.30;;;5.10;99.90;;;;;;5049623;28;20044;-79
2024/01/31 08:10:52;;;;;;;2.83;1.50;;;5.10;99.90;;;;;;5046632;28;20044;-78
2024/01/31 08:13:18;;;;;;;5.10;1.58;;;5.10;99.90;;;;;;5049045;28;20040;-75
2024/01/31 08:15:44;;;;;;;2.13;0.95;;;5.10;99.90;;;;;;5047373;28;20087;-77
2024/01/31 08:18:10;;;;;;;2.67;1.65;;;5.10;99.90;;;;;;5046936;28;20048;-78
2024/01/31 08:20:35;;;;;;;2.15;1.30;;;5.20;99.90;;;;;;5048766;28;20048;-78
2024/01/31 08:23:02;;;;;;;2.88;1.20;;;5.10;99.90;;;;;;5049252;28;20094;-76
2024/01/31 08:25:28;;;;;;;2.50;1.40;;;5.20;99.90;;;;;;5048222;28;20041;-77
2024/01/31 08:27:53;;;;;;;5.50;1.48;;;5.20;99.90;;;;;;5045194;28;20044;-75
2024/01/31 08:30:21;;;;;;;3.40;1.38;;;5.20;99.90;;;;;;5049318;28;20045;-78
2024/01/31 08:32:47;;;;;;;4.45;1.73;;;5.30;99.90;;;;;;5050120;28;20044;-78
2024/01/31 08:35:12;;;;;;;2.63;1.60;;;5.30;99.90;;;;;;5033675;28;20120;-77
2024/01/31 08:37:39;;;;;;;4.38;2.15;;;5.30;99.90;;;;;;5049918;28;20040;-75
2024/01/31 08:40:08;;;;;;;4.00;1.95;;;5.40;99.90;;;;;;5049424;28;20103;-75
2024/01/31 08:42:36;;;;;;;4.85;2.00;;;5.40;99.90;;;;;;5049650;28;20037;-77
2024/01/31 08:45:02;;;;;;;4.60;1.67;;;5.50;99.90;;;;;;5066552;28;20032;-76
2024/01/31 08:47:28;;;;;;;4.03;2.22;;;5.50;99.90;;;;;;5050041;28;20480;-78
2024/01/31 08:49:54;;;;;;;3.95;1.60;;;5.60;99.90;;;;;;5045362;28;20041;-76
2024/01/31 08:52:19;;;;;;;5.45;2.75;;;5.60;99.90;;;;;;5048307;28;20466;-75
2024/01/31 08:54:45;;;;;;;4.68;2.00;;;5.70;99.90;;;;;;5049299;28;20045;-78
2024/01/31 08:57:11;;;;;;;3.85;1.58;;;5.70;99.90;;;;;;5049094;28;20120;-77
2024/01/31 08:59:37;;;;;;;3.40;1.75;;;5.70;99.90;;;;;;5050248;28;20435;-78
2024/01/31 09:02:03;;;;;;;4.25;2.13;;;5.80;99.90;;;;;;5047992;28;20043;-77
2024/01/31 09:04:29;;;;;;;4.03;2.03;;;5.80;99.90;;;;;;5050031;28;20473;-78
2024/01/31 09:06:55;;;;;;;6.63;2.88;;;5.80;99.90;;;;;;5046812;28;20065;-77
2024/01/31 09:09:20;;;;;;;3.53;2.20;;;5.90;99.90;;;;;;5048439;28;20047;-77
2024/01/31 09:11:46;;;;;;;3.45;1.95;;;5.90;99.90;;;;;;5049631;28;20524;-76
2024/01/31 09:14:12;;;;;;;4.28;2.00;;;6.00;99.90;;;;;;5049225;28;20041;-77
2024/01/31 09:16:38;;;;;;;5.18;2.30;;;6.00;99.90;;;;;;5079038;28;20037;-77
2024/01/31 09:19:04;;;;;;;3.80;1.65;;;6.10;99.90;;;;;;5047430;28;20049;-76
2024/01/31 09:21:30;;;;;;;5.57;2.58;;;6.10;99.90;;;;;;5038347;28;20076;-77
2024/01/31 09:23:57;;;;;;;4.03;2.00;;;6.10;99.90;;;;;;5034241;28;20465;-78
2024/01/31 09:26:22;;;;;;;5.15;2.28;;;6.20;99.90;;;;;;5037025;28;20084;-78
2024/01/31 09:28:49;;;;;;;8.75;3.20;;;6.20;99.90;;;;;;5040895;28;20129;-77
2024/01/31 09:31:26;;;;;;;6.32;3.03;;;6.30;99.90;;;;;;5025801;28;20041;-78
2024/01/31 09:33:54;;;;;;;7.57;2.50;;;6.40;99.90;;;;;;5034146;28;20444;-77
2024/01/31 09:36:20;;;;;;;5.32;2.70;;;6.40;99.90;;;;;;5039415;28;20073;-78
2024/01/31 09:38:49;;;;;;;8.38;3.45;;;6.50;99.90;;;;;;5039157;28;20048;-77
2024/01/31 09:41:16;;;;;;;5.05;2.35;;;6.50;99.90;;;;;;5041339;28;20451;-78
2024/01/31 09:43:43;;;;;;;6.63;2.97;;;6.50;99.90;;;;;;5030224;28;20052;-78
2024/01/31 09:46:09;;;;;;;4.57;2.00;;;6.50;99.90;;;;;;5046897;28;20401;-77
2024/01/31 09:48:36;;;;;;;4.82;3.42;;;6.50;99.90;;;;;;5039748;28;20148;-77
2024/01/31 09:51:04;;;;;;;5.45;2.38;;;6.60;99.90;;;;;;5038705;28;20037;-76
2024/01/31 09:53:38;;;;;;;5.22;2.80;;;6.60;99.90;;;;;;5023111;28;20037;-76
2024/01/31 09:56:05;;;;;;;4.70;2.63;;;6.50;99.90;;;;;;5038204;28;20041;-77
2024/01/31 09:58:31;;;;;;;3.42;2.17;;;6.50;99.90;;;;;;5046152;28;20097;-77
2024/01/31 10:01:03;;;;;;;4.88;2.28;;;6.50;99.90;;;;;;5028995;28;20469;-77
2024/01/31 10:03:29;;;;;;;5.80;2.58;;;6.50;99.90;;;;;;5046172;28;20044;-76
2024/01/31 10:05:55;;;;;;;9.07;2.58;;;6.50;99.90;;;;;;5036837;28;20038;-77
2024/01/31 10:08:20;;;;;;;7.30;2.97;;;6.50;99.90;;;;;;5021396;28;20386;-76
2024/01/31 10:10:47;;;;;;;6.47;2.72;;;6.50;99.90;;;;;;5035459;28;20048;-77
2024/01/31 10:13:13;;;;;;;10.02;4.07;;;6.50;99.90;;;;;;5044051;28;20049;-75
2024/01/31 10:15:39;;;;;;;10.73;4.53;;;6.50;99.90;;;;;;5038227;28;20044;-75
2024/01/31 10:18:05;;;;;;;12.95;4.57;;;6.50;99.90;;;;;;5037797;28;20049;-75
2024/01/31 10:20:30;;;;;;;8.45;3.13;;;6.50;99.90;;;;;;5037739;28;20045;-77
2024/01/31 10:22:59;;;;;;;11.35;4.53;;;6.50;99.90;;;;;;5039393;28;20500;-77
2024/01/31 10:25:27;;;;;;;8.88;3.03;;;6.50;99.90;;;;;;5027554;28;20129;-79
2024/01/31 10:27:53;;;;;;;9.23;3.40;;;6.50;99.90;;;;;;5028382;28;20112;-78
2024/01/31 10:30:19;;;;;;;5.28;2.47;;;6.60;99.90;;;;;;5032024;28;20580;-78
2024/01/31 10:32:45;;;;;;;6.75;2.67;;;6.60;99.90;;;;;;5042727;28;20552;-78
2024/01/31 10:35:13;;;;;;;4.32;2.35;;;6.60;99.90;;;;;;5022506;28;20142;-78
2024/01/31 10:37:38;;;;;;;5.55;2.72;;;6.70;99.90;;;;;;5041183;28;20101;-78
2024/01/31 10:40:11;;;;;;;8.15;3.22;;;6.70;99.90;;;;;;5047377;28;20037;-76
2024/01/31 10:42:38;;;;;;;7.70;3.45;;;6.70;99.90;;;;;;5072265;28;20476;-78
2024/01/31 10:45:05;;;;;;;5.45;2.90;;;6.70;99.90;;;;;;5046388;28;20110;-78
2024/01/31 10:47:32;;;;;;;7.32;3.15;;;6.70;99.90;;;;;;5048980;28;20044;-78
2024/01/31 10:49:58;;;;;;;18.40;6.00;;;6.80;99.90;;;;;;5038707;28;20170;-78
2024/01/31 10:52:30;;;;;;;10.63;4.53;;;6.80;99.90;;;;;;5046672;28;20560;-75
2024/01/31 10:54:59;;;;;;;11.82;4.47;;;6.80;99.90;;;;;;5037464;28;20127;-79
2024/01/31 10:57:26;;;;;;;8.80;3.30;;;6.70;99.90;;;;;;5041643;28;20042;-78
2024/01/31 10:59:55;;;;;;;7.10;3.92;;;6.70;99.90;;;;;;5038310;28;20299;-78
2024/01/31 11:02:31;;;;;;;5.65;3.05;;;6.70;99.90;;;;;;5038150;28;20049;-78
2024/01/31 11:05:01;;;;;;;6.70;3.13;;;6.70;99.90;;;;;;5040385;28;20497;-78
2024/01/31 11:07:28;;;;;;;5.00;2.60;;;6.80;99.90;;;;;;5045727;28;20131;-77
2024/01/31 11:09:54;;;;;;;8.45;4.35;;;6.80;99.90;;;;;;5047830;28;20088;-78
2024/01/31 11:12:20;;;;;;;6.85;2.83;;;6.70;99.90;;;;;;5037919;28;20060;-79
2024/01/31 11:14:48;;;;;;;7.90;3.33;;;6.70;99.90;;;;;;5025412;28;20489;-78
2024/01/31 11:17:22;;;;;;;8.65;3.10;;;6.80;99.90;;;;;;5037973;28;20405;-78
2024/01/31 11:19:58;;;;;;;5.32;3.40;;;6.80;99.90;;;;;;5038881;28;20048;-78
2024/01/31 11:22:24;;;;;;;4.35;3.00;;;6.70;99.90;;;;;;5046403;28;20083;-79
2024/01/31 11:24:53;;;;;;;4.00;2.53;;;6.70;99.90;;;;;;5039790;28;20049;-78
2024/01/31 11:27:20;;;;;;;10.52;2.63;;;6.80;99.90;;;;;;5036266;28;20046;-78
2024/01/31 11:29:50;;;;;;;6.07;2.40;;;6.80;99.90;;;;;;5043925;28;20168;-77
2024/01/31 11:32:17;;;;;;;4.82;2.78;;;6.70;99.90;;;;;;5043530;28;20033;-78
2024/01/31 11:34:44;;;;;;;10.55;2.97;;;6.80;99.90;;;;;;5074922;28;20036;-78
2024/01/31 11:37:11;;;;;;;8.70;3.17;;;6.80;99.90;;;;;;5041406;28;20033;-78
2024/01/31 11:39:36;;;;;;;12.73;4.55;;;6.80;99.90;;;;;;5040043;28;20381;-77
2024/01/31 11:42:03;;;;;;;6.90;2.80;;;6.80;99.90;;;;;;5040287;28;20041;-78
2024/01/31 11:44:29;;;;;;;9.02;3.38;;;6.80;99.90;;;;;;5040865;28;20052;-78
2024/01/31 11:46:56;;;;;;;6.50;3.60;;;6.80;99.90;;;;;;5043844;28;20076;-79
2024/01/31 11:49:22;;;;;;;4.93;3.10;;;6.80;99.90;;;;;;5041366;28;20045;-78
2024/01/31 11:51:48;;;;;;;3.85;1.95;;;6.90;99.90;;;;;;5028698;28;20064;-78
2024/01/31 11:54:15;;;;;;;5.57;2.92;;;6.90;99.90;;;;;;5040292;28;20044;-77
2024/01/31 11:56:41;;;;;;;5.65;3.05;;;6.90;99.90;;;;;;5044614;28;20073;-78
2024/01/31 11:59:07;;;;;;;7.97;3.05;;;6.90;99.90;;;;;;5041271;28;20052;-79
2024/01/31 12:01:34;;;;;;;6.07;2.92;;;7.00;99.90;;;;;;5042642;28;20048;-78
2024/01/31 12:04:04;;;;;;;6.05;2.50;;;7.00;99.90;;;;;;5039508;28;20405;-79
2024/01/31 12:06:31;;;;;;;6.75;3.72;;;7.00;99.90;;;;;;5046606;28;20077;-78
2024/01/31 12:09:13;;;;;;;7.25;3.15;;;7.00;99.90;;;;;;5044315;28;20504;-78
2024/01/31 12:11:39;;;;;;;5.38;3.20;;;7.00;99.90;;;;;;5039175;28;20456;-78
2024/01/31 12:14:05;;;;;;;5.93;2.78;;;7.00;99.90;;;;;;5039539;28;20045;-78
2024/01/31 12:16:40;;;;;;;4.95;3.00;;;7.00;99.90;;;;;;5024837;28;20041;-78
2024/01/31 12:19:07;;;;;;;5.78;2.80;;;7.00;99.90;;;;;;5062300;28;20071;-78
2024/01/31 12:21:42;;;;;;;7.35;3.47;;;7.00;99.90;;;;;;5043857;28;20079;-78
2024/01/31 12:24:09;;;;;;;6.35;3.35;;;7.00;99.90;;;;;;5028677;28;20044;-77
2024/01/31 12:26:34;;;;;;;5.88;3.80;;;7.00;99.90;;;;;;5039730;28;20143;-76
2024/01/31 12:29:00;;;;;;;7.97;3.83;;;7.10;99.90;;;;;;5037533;28;20124;-78
2024/01/31 12:31:26;;;;;;;6.30;3.65;;;7.10;99.90;;;;;;5036454;28;20041;-77
2024/01/31 12:33:53;;;;;;;7.60;4.13;;;7.10;99.90;;;;;;5036107;28;20041;-79
2024/01/31 12:36:20;;;;;;;7.20;3.45;;;7.10;99.90;;;;;;5043495;28;20040;-80
2024/01/31 12:38:45;;;;;;;9.43;3.53;;;7.10;99.90;;;;;;5021695;28;20091;-80
2024/01/31 12:41:11;;;;;;;10.32;3.97;;;7.10;99.90;;;;;;5047713;28;20037;-79
2024/01/31 12:43:37;;;;;;;10.40;4.28;;;7.10;99.90;;;;;;5043269;28;20042;-80
2024/01/31 12:46:03;;;;;;;7.00;3.97;;;7.20;99.90;;;;;;5035961;28;20037;-79
2024/01/31 12:48:29;;;;;;;7.22;3.60;;;7.20;99.90;;;;;;5035789;28;20041;-72
2024/01/31 12:50:58;;;;;;;7.13;3.35;;;7.20;99.90;;;;;;5036433;28;20045;-78
2024/01/31 12:53:24;;;;;;;6.82;3.13;;;7.20;99.90;;;;;;5037545;28;20040;-78